Time;durP1;ratioP1;P1;durP2;ratioP2;P2;SDS_P1;SDS_P2;PMS_P1;PMS_P2;Temp;Humidity;BMP_temperature;BMP_pressure;BME280_temperature;BME280_humidity;BME280_pressure;Samples;Min_cycle;Max_cycle;Signal;HPM_P1;HPM_P2
2021/10/08 00:01:32;;;;;;;7.47;6.67;;;12.60;99.90;;;;;;6103092;23;20391;-89
2021/10/08 00:04:16;;;;;;;7.13;6.30;;;12.60;99.90;;;;;;6101792;23;20428;-88
2021/10/08 00:07:01;;;;;;;8.95;7.50;;;12.50;99.90;;;;;;6143463;23;20428;-88
2021/10/08 00:09:45;;;;;;;9.40;6.78;;;12.50;99.90;;;;;;6122773;23;20359;-89
2021/10/08 00:12:29;;;;;;;8.85;7.93;;;12.50;99.90;;;;;;6122065;23;20363;-90
2021/10/08 00:15:14;;;;;;;8.35;7.25;;;12.40;99.90;;;;;;6122904;23;20367;-88
2021/10/08 00:17:58;;;;;;;11.63;6.95;;;12.40;99.90;;;;;;6122760;23;20367;-89
2021/10/08 00:20:42;;;;;;;9.00;6.97;;;12.40;99.90;;;;;;6142769;23;20363;-90
2021/10/08 00:23:27;;;;;;;9.38;7.57;;;12.40;99.90;;;;;;6082336;23;20408;-88
2021/10/08 00:26:11;;;;;;;7.50;6.47;;;12.30;99.90;;;;;;6102655;23;20403;-88
2021/10/08 00:28:55;;;;;;;7.63;6.93;;;12.30;99.90;;;;;;6121350;23;20400;-87
2021/10/08 00:31:39;;;;;;;9.13;7.72;;;12.30;99.90;;;;;;6122457;23;20411;-88
2021/10/08 00:34:24;;;;;;;8.95;6.50;;;12.20;99.90;;;;;;6121850;23;20391;-84
2021/10/08 00:37:09;;;;;;;7.10;6.40;;;12.20;99.90;;;;;;6143855;23;20675;-88
2021/10/08 00:39:53;;;;;;;6.80;6.15;;;12.10;99.90;;;;;;6101998;23;20572;-86
2021/10/08 00:42:37;;;;;;;7.30;6.43;;;12.20;99.90;;;;;;6101537;23;20360;-90
2021/10/08 00:45:22;;;;;;;7.07;6.37;;;12.20;99.90;;;;;;6081223;23;20364;-89
2021/10/08 00:48:07;;;;;;;13.57;7.83;;;12.20;99.90;;;;;;6100051;23;20400;-88
2021/10/08 00:50:52;;;;;;;8.48;7.68;;;12.20;99.90;;;;;;6109180;23;20381;-90
2021/10/08 00:53:36;;;;;;;7.30;6.45;;;12.10;99.90;;;;;;6081680;23;20412;-90
2021/10/08 00:56:21;;;;;;;7.25;6.55;;;12.00;99.90;;;;;;6102101;23;20392;-89
2021/10/08 00:59:05;;;;;;;7.05;6.35;;;12.00;99.90;;;;;;6121546;23;20422;-87
2021/10/08 01:01:50;;;;;;;8.65;7.03;;;12.10;99.90;;;;;;6096049;23;20447;-89
2021/10/08 01:04:34;;;;;;;7.05;6.15;;;12.10;99.90;;;;;;6074007;23;20361;-87
2021/10/08 01:07:19;;;;;;;9.35;6.55;;;12.10;99.90;;;;;;6114639;23;20374;-91
2021/10/08 01:10:05;;;;;;;8.43;6.50;;;12.10;99.90;;;;;;6135231;23;20409;-85
2021/10/08 01:12:50;;;;;;;8.23;7.20;;;12.10;99.90;;;;;;6115064;23;20454;-88
2021/10/08 01:15:35;;;;;;;9.10;7.38;;;11.90;99.90;;;;;;6130613;23;20389;-88
2021/10/08 01:18:19;;;;;;;11.32;6.32;;;12.10;99.90;;;;;;6115056;23;20434;-91
2021/10/08 01:21:04;;;;;;;6.95;6.25;;;12.10;99.90;;;;;;6094722;23;20389;-87
2021/10/08 01:23:48;;;;;;;7.50;6.72;;;12.00;99.90;;;;;;6123770;23;20376;-89
2021/10/08 01:26:34;;;;;;;9.02;6.78;;;12.10;99.90;;;;;;6120398;23;20411;-88
2021/10/08 01:29:18;;;;;;;7.68;6.97;;;12.10;99.90;;;;;;6120255;23;20408;-89
2021/10/08 01:32:02;;;;;;;7.78;6.97;;;12.00;99.90;;;;;;6102933;23;20383;-88
2021/10/08 01:34:48;;;;;;;8.38;7.00;;;12.00;99.90;;;;;;6098519;23;20356;-88
2021/10/08 01:37:33;;;;;;;8.23;6.63;;;11.90;99.90;;;;;;6103034;23;20372;-88
2021/10/08 01:40:17;;;;;;;9.10;7.20;;;11.90;99.90;;;;;;6082198;23;20481;-89
2021/10/08 01:43:05;;;;;;;9.67;8.10;;;11.90;99.90;;;;;;6163449;23;20448;-88
2021/10/08 01:45:50;;;;;;;10.38;7.82;;;12.00;99.90;;;;;;6081020;23;23344;-88
2021/10/08 01:48:44;;;;;;;7.72;6.93;;;11.90;99.90;;;;;;6164789;23;20403;-88
2021/10/08 01:51:28;;;;;;;8.27;7.35;;;11.80;99.90;;;;;;6056332;23;20394;-89
2021/10/08 01:54:12;;;;;;;9.15;7.78;;;11.80;99.90;;;;;;6137748;23;20361;-90
2021/10/08 01:56:59;;;;;;;8.82;7.93;;;11.80;99.90;;;;;;6150524;23;21228;-88
2021/10/08 01:59:44;;;;;;;12.43;8.07;;;11.80;99.90;;;;;;6152743;23;20365;-87
2021/10/08 02:02:31;;;;;;;9.82;8.82;;;11.80;99.90;;;;;;6152865;23;20366;-88
2021/10/08 02:05:15;;;;;;;8.73;7.78;;;11.70;99.90;;;;;;6123974;23;20396;-87
2021/10/08 02:08:01;;;;;;;7.97;7.18;;;11.70;99.90;;;;;;6144142;23;20363;-87
2021/10/08 02:10:50;;;;;;;8.82;7.65;;;11.70;99.90;;;;;;6104034;23;20405;-88
2021/10/08 02:13:35;;;;;;;8.23;7.10;;;11.80;99.90;;;;;;6102190;23;20388;-88
2021/10/08 02:16:20;;;;;;;8.30;7.30;;;11.70;99.90;;;;;;6123925;23;20399;-89
2021/10/08 02:19:12;;;;;;;8.63;6.75;;;11.70;99.90;;;;;;6142816;23;20376;-88
2021/10/08 02:22:02;;;;;;;8.93;8.02;;;11.70;99.90;;;;;;6144286;23;20375;-86
2021/10/08 02:24:49;;;;;;;8.55;7.72;;;11.70;99.90;;;;;;6144922;23;20368;-88
2021/10/08 02:30:36;;;;;;;8.27;7.43;;;11.70;99.90;;;;;;6230333;23;20962;-87
2021/10/08 02:33:21;;;;;;;8.38;7.03;;;11.80;99.90;;;;;;6199806;23;20505;-88
2021/10/08 02:36:06;;;;;;;7.00;6.40;;;11.80;99.90;;;;;;6161420;23;20396;-88
2021/10/08 02:38:52;;;;;;;8.55;7.75;;;11.90;99.90;;;;;;6165931;22;20459;-88
2021/10/08 02:41:36;;;;;;;10.13;8.90;;;11.80;99.90;;;;;;6183729;23;20341;-88
2021/10/08 02:44:20;;;;;;;9.68;8.65;;;11.80;99.90;;;;;;6189637;22;20414;-89
2021/10/08 02:47:05;;;;;;;9.65;8.65;;;11.70;99.90;;;;;;6213031;22;20386;-87
2021/10/08 02:49:49;;;;;;;10.20;8.68;;;11.70;99.90;;;;;;6212081;22;20611;-88
2021/10/08 02:52:34;;;;;;;8.60;7.80;;;11.60;99.90;;;;;;6191293;22;20346;-88
2021/10/08 02:55:19;;;;;;;10.13;8.98;;;11.60;99.90;;;;;;6211795;22;20417;-86
2021/10/08 02:58:03;;;;;;;8.93;7.30;;;11.70;99.90;;;;;;6211392;22;20354;-86
2021/10/08 03:00:50;;;;;;;10.35;8.93;;;11.70;99.90;;;;;;6198723;23;20384;-88
2021/10/08 03:03:35;;;;;;;8.70;7.80;;;11.70;99.90;;;;;;6178200;22;20385;-89
2021/10/08 03:06:19;;;;;;;8.95;8.05;;;11.70;99.90;;;;;;6221836;22;20353;-87
2021/10/08 03:09:03;;;;;;;8.43;7.13;;;11.70;99.90;;;;;;6219911;22;20381;-87
2021/10/08 03:11:49;;;;;;;8.60;7.70;;;11.80;99.90;;;;;;6217035;22;20357;-88
2021/10/08 03:17:34;;;;;;;9.85;7.70;;;11.60;99.90;;;;;;6264445;22;20373;-87
2021/10/08 03:20:19;;;;;;;8.07;7.27;;;11.70;99.90;;;;;;6239638;22;20396;-87
2021/10/08 03:23:04;;;;;;;8.50;7.57;;;11.70;99.90;;;;;;6210830;23;20362;-88
2021/10/08 03:25:48;;;;;;;9.52;7.30;;;11.70;99.90;;;;;;6191027;23;20374;-88
2021/10/08 03:28:32;;;;;;;9.88;7.47;;;11.70;99.90;;;;;;6188935;23;20394;-87
2021/10/08 03:31:17;;;;;;;8.63;7.57;;;11.80;99.90;;;;;;6212194;23;20367;-88
2021/10/08 03:34:02;;;;;;;8.38;7.57;;;11.70;99.90;;;;;;6232914;23;20410;-89
2021/10/08 03:36:50;;;;;;;8.63;7.15;;;11.70;99.90;;;;;;6191970;23;20354;-90
2021/10/08 03:39:38;;;;;;;8.00;6.85;;;11.70;99.90;;;;;;6211609;23;20381;-89
2021/10/08 03:42:23;;;;;;;8.57;7.75;;;11.70;99.90;;;;;;6189951;23;20362;-87
2021/10/08 03:45:14;;;;;;;8.93;6.75;;;11.60;99.90;;;;;;6212225;23;20362;-88
2021/10/08 03:48:20;;;;;;;9.75;6.45;;;11.60;99.90;;;;;;6171366;23;20413;-87
2021/10/08 03:51:14;;;;;;;7.70;6.90;;;11.60;99.90;;;;;;6221399;22;20369;-88
2021/10/08 03:53:58;;;;;;;8.40;7.27;;;11.60;99.90;;;;;;6132568;23;20390;-87
2021/10/08 03:56:44;;;;;;;8.10;6.72;;;11.50;99.90;;;;;;6170191;23;20359;-90
2021/10/08 03:59:29;;;;;;;10.25;7.35;;;11.50;99.90;;;;;;6156242;23;20447;-89
2021/10/08 04:02:14;;;;;;;8.95;7.93;;;11.40;99.90;;;;;;6191533;23;20390;-87
2021/10/08 04:05:03;;;;;;;9.57;7.93;;;11.30;99.90;;;;;;6176411;23;20396;-88
2021/10/08 04:07:47;;;;;;;7.75;7.05;;;11.20;99.90;;;;;;6176618;23;20354;-87
2021/10/08 04:10:32;;;;;;;10.35;8.30;;;11.20;99.90;;;;;;6169571;23;20374;-88
2021/10/08 04:13:19;;;;;;;7.25;6.38;;;11.20;99.90;;;;;;6243132;22;20384;-88
2021/10/08 04:16:03;;;;;;;7.80;6.80;;;11.20;99.90;;;;;;6228545;22;20454;-91
2021/10/08 04:18:49;;;;;;;7.90;7.10;;;11.00;99.90;;;;;;6217001;22;20364;-92
2021/10/08 04:21:34;;;;;;;8.90;7.95;;;11.00;99.90;;;;;;6225235;22;20356;-88
2021/10/08 04:24:20;;;;;;;7.22;6.55;;;10.90;99.90;;;;;;6180002;23;20417;-88
2021/10/08 04:36:02;;;;;;;7.53;6.82;;;10.80;99.90;;;;;;6223051;22;20361;-80
2021/10/08 04:39:00;;;;;;;8.63;7.80;;;10.70;99.90;;;;;;6107686;23;20372;-80
2021/10/08 04:58:43;;;;;;;9.20;7.25;;;10.40;99.90;;;;;;6136105;23;20382;-80
2021/10/08 05:03:16;;;;;;;8.88;7.30;;;10.40;99.90;;;;;;6186550;22;20347;-80
2021/10/08 05:11:19;;;;;;;13.95;8.38;;;10.20;99.90;;;;;;6005572;23;20395;-80
2021/10/08 05:17:55;;;;;;;8.63;7.23;;;10.10;99.90;;;;;;6094988;23;20735;-81
2021/10/08 05:20:42;;;;;;;8.63;7.40;;;10.10;99.90;;;;;;6062120;23;20903;-79
2021/10/08 05:23:27;;;;;;;11.23;8.83;;;10.10;99.90;;;;;;6098664;23;20874;-80
2021/10/08 05:26:14;;;;;;;11.60;8.65;;;10.00;99.90;;;;;;6104554;23;20374;-81
2021/10/08 05:29:05;;;;;;;7.55;6.85;;;9.90;99.90;;;;;;6146149;23;20390;-80
2021/10/08 05:31:52;;;;;;;9.27;8.33;;;9.90;99.90;;;;;;6125668;23;20748;-80
2021/10/08 05:34:40;;;;;;;8.15;7.22;;;9.90;99.90;;;;;;6115985;23;20459;-80
2021/10/08 05:37:27;;;;;;;8.43;7.57;;;9.90;99.90;;;;;;6147931;23;20382;-80
2021/10/08 05:40:14;;;;;;;7.40;6.70;;;9.80;99.90;;;;;;6140918;23;20859;-80
2021/10/08 05:43:07;;;;;;;9.32;8.27;;;9.80;99.90;;;;;;6123331;23;20377;-80
2021/10/08 05:45:58;;;;;;;10.02;8.82;;;9.80;99.90;;;;;;6146114;23;20406;-81
2021/10/08 05:48:48;;;;;;;11.85;7.22;;;9.60;99.90;;;;;;6111216;23;20729;-82
2021/10/08 05:51:32;;;;;;;11.65;8.35;;;9.80;99.90;;;;;;6133043;23;20409;-82
2021/10/08 05:54:16;;;;;;;8.63;7.20;;;9.70;99.90;;;;;;6125198;23;20483;-82
2021/10/08 05:57:00;;;;;;;7.43;6.63;;;9.70;99.90;;;;;;6125696;23;20438;-82
2021/10/08 05:59:45;;;;;;;7.70;7.00;;;9.80;99.90;;;;;;6103454;23;20948;-83
2021/10/08 06:02:30;;;;;;;8.88;7.43;;;9.80;99.90;;;;;;6145863;23;20371;-83
2021/10/08 06:05:15;;;;;;;8.60;7.47;;;9.80;99.90;;;;;;6109640;23;20427;-83
2021/10/08 06:08:02;;;;;;;8.20;7.40;;;9.80;99.90;;;;;;6093303;23;20818;-82
2021/10/08 06:10:48;;;;;;;9.73;8.20;;;9.80;99.90;;;;;;6113745;23;20920;-82
2021/10/08 06:13:35;;;;;;;7.93;6.95;;;9.90;99.90;;;;;;6134520;23;20481;-82
2021/10/08 06:16:19;;;;;;;7.73;6.93;;;10.00;99.90;;;;;;6126904;23;20451;-82
2021/10/08 06:19:04;;;;;;;9.63;8.63;;;9.90;99.90;;;;;;6165007;23;20438;-82
2021/10/08 06:21:50;;;;;;;7.95;7.18;;;9.90;99.90;;;;;;6110323;23;20370;-82
2021/10/08 06:24:35;;;;;;;10.10;7.82;;;9.90;99.90;;;;;;6125110;23;20378;-82
2021/10/08 06:27:21;;;;;;;7.65;6.82;;;9.90;99.90;;;;;;6072902;23;20376;-82
2021/10/08 06:30:11;;;;;;;10.43;8.48;;;10.00;99.90;;;;;;6105503;23;20530;-82
2021/10/08 06:32:57;;;;;;;8.88;7.20;;;9.90;99.90;;;;;;6163531;23;20370;-82
2021/10/08 06:35:42;;;;;;;10.25;8.98;;;10.10;99.90;;;;;;6097128;23;20379;-83
2021/10/08 06:38:27;;;;;;;8.68;7.53;;;10.00;99.90;;;;;;6095949;23;20399;-82
2021/10/08 06:41:11;;;;;;;10.65;7.53;;;10.10;99.90;;;;;;6097268;23;20707;-82
2021/10/08 06:43:57;;;;;;;8.70;7.80;;;10.10;99.90;;;;;;6096938;23;20395;-83
2021/10/08 06:46:44;;;;;;;10.48;8.95;;;10.10;99.90;;;;;;6056902;23;20453;-83
2021/10/08 06:49:29;;;;;;;11.93;9.45;;;10.10;99.90;;;;;;6078293;23;20383;-82
2021/10/08 06:52:13;;;;;;;9.07;8.27;;;10.20;99.90;;;;;;6075325;23;20399;-83
2021/10/08 06:54:58;;;;;;;8.18;7.35;;;10.10;99.90;;;;;;6096308;23;20397;-82
2021/10/08 06:57:43;;;;;;;9.00;8.10;;;10.20;99.90;;;;;;6115219;23;20372;-81
2021/10/08 07:00:27;;;;;;;9.43;8.43;;;10.20;99.90;;;;;;6116973;23;20477;-83
2021/10/08 07:03:12;;;;;;;12.43;9.43;;;10.20;99.90;;;;;;6132570;23;20380;-82
2021/10/08 07:06:00;;;;;;;9.23;7.70;;;10.30;99.90;;;;;;6162205;23;20387;-82
2021/10/08 07:08:45;;;;;;;9.10;7.65;;;10.30;99.90;;;;;;6118161;23;20406;-82
2021/10/08 07:11:31;;;;;;;12.93;9.88;;;10.30;99.90;;;;;;6093213;23;20401;-81
2021/10/08 07:14:16;;;;;;;11.32;8.93;;;10.40;99.90;;;;;;6113547;23;20880;-80
2021/10/08 07:17:00;;;;;;;12.23;8.93;;;10.30;99.90;;;;;;6118848;23;20374;-80
2021/10/08 07:19:45;;;;;;;11.15;9.35;;;10.30;99.90;;;;;;6126225;23;20413;-80
2021/10/08 07:22:30;;;;;;;12.82;8.98;;;10.40;99.90;;;;;;6103720;23;20457;-80
2021/10/08 07:25:15;;;;;;;9.15;8.07;;;10.50;99.90;;;;;;6168433;23;20372;-80
2021/10/08 07:28:00;;;;;;;10.68;9.32;;;10.50;99.90;;;;;;6125702;23;20374;-80
2021/10/08 07:30:44;;;;;;;11.65;9.85;;;10.60;99.90;;;;;;6104197;23;22641;-80
2021/10/08 07:33:30;;;;;;;10.73;9.60;;;10.70;99.90;;;;;;6106364;23;20370;-80
2021/10/08 07:36:14;;;;;;;11.57;10.38;;;10.70;99.90;;;;;;6162920;23;20395;-79
2021/10/08 07:38:59;;;;;;;12.13;10.07;;;10.80;99.90;;;;;;6146601;23;20370;-80
2021/10/08 07:41:45;;;;;;;9.60;8.23;;;10.80;99.90;;;;;;6146551;23;20751;-80
2021/10/08 07:44:29;;;;;;;9.98;8.70;;;10.90;99.90;;;;;;6105459;23;20434;-80
2021/10/08 07:47:14;;;;;;;11.57;9.88;;;11.00;99.90;;;;;;6125823;23;20378;-79
2021/10/08 07:50:02;;;;;;;9.82;8.77;;;11.20;99.90;;;;;;6093647;23;20386;-79
2021/10/08 07:52:47;;;;;;;12.20;10.43;;;11.10;99.90;;;;;;6102394;23;20429;-81
2021/10/08 07:55:32;;;;;;;11.32;10.13;;;11.10;99.90;;;;;;6145394;23;20394;-83
2021/10/08 07:58:17;;;;;;;11.85;10.27;;;11.10;99.90;;;;;;6142883;23;21001;-81
2021/10/08 08:01:01;;;;;;;12.80;9.35;;;11.00;99.90;;;;;;6122608;23;20417;-83
2021/10/08 08:03:46;;;;;;;11.07;9.98;;;11.10;99.90;;;;;;6102976;23;20366;-83
2021/10/08 08:06:31;;;;;;;9.13;8.23;;;11.20;99.90;;;;;;6104917;23;20501;-83
2021/10/08 08:09:16;;;;;;;12.40;9.93;;;11.20;99.90;;;;;;6122282;23;20518;-82
2021/10/08 08:12:03;;;;;;;10.77;8.52;;;11.30;99.90;;;;;;6124855;23;20374;-83
2021/10/08 08:14:48;;;;;;;11.60;9.10;;;11.20;99.90;;;;;;6124233;23;20369;-83
2021/10/08 08:17:32;;;;;;;9.70;8.70;;;11.30;99.90;;;;;;6133788;23;20476;-82
2021/10/08 08:20:17;;;;;;;12.65;9.70;;;11.40;99.90;;;;;;6113682;23;20424;-83
2021/10/08 08:23:02;;;;;;;10.70;9.55;;;11.60;99.90;;;;;;6112087;23;20376;-83
2021/10/08 08:25:47;;;;;;;10.63;8.82;;;11.70;99.90;;;;;;6112471;23;20449;-83
2021/10/08 08:28:31;;;;;;;13.07;9.40;;;11.60;99.90;;;;;;6138931;23;20448;-83
2021/10/08 08:31:16;;;;;;;8.15;7.35;;;11.70;99.90;;;;;;6154730;23;20380;-83
2021/10/08 08:34:01;;;;;;;9.75;8.75;;;11.80;99.90;;;;;;6093017;23;20439;-79
2021/10/08 08:36:46;;;;;;;12.65;9.18;;;11.90;99.90;;;;;;6153909;23;20361;-80
2021/10/08 08:39:32;;;;;;;9.95;8.57;;;12.00;99.90;;;;;;6094454;23;20700;-80
2021/10/08 08:42:20;;;;;;;9.45;7.80;;;11.90;99.90;;;;;;6136561;23;20483;-81
2021/10/08 08:45:06;;;;;;;9.18;7.28;;;12.00;99.90;;;;;;6134142;23;20373;-80
2021/10/08 08:47:59;;;;;;;9.93;6.25;;;12.20;99.90;;;;;;6134737;23;20365;-80
2021/10/08 08:50:46;;;;;;;7.78;6.97;;;12.30;99.90;;;;;;6113169;23;20435;-80
2021/10/08 08:53:31;;;;;;;10.27;8.47;;;12.40;99.90;;;;;;6112873;23;20400;-79
2021/10/08 08:56:16;;;;;;;8.98;7.25;;;12.40;99.90;;;;;;6111989;23;20430;-80
2021/10/08 08:59:05;;;;;;;13.45;8.05;;;12.60;99.90;;;;;;6111799;23;20372;-80
2021/10/08 09:02:04;;;;;;;7.97;7.07;;;12.60;99.90;;;;;;6081656;23;20378;-80
2021/10/08 09:04:48;;;;;;;7.28;6.57;;;12.70;99.90;;;;;;6123243;23;20378;-80
2021/10/08 09:07:35;;;;;;;7.82;6.43;;;12.80;99.90;;;;;;6084000;23;20382;-80
2021/10/08 09:10:21;;;;;;;8.38;6.55;;;12.70;99.90;;;;;;6101416;23;20388;-80
2021/10/08 09:13:05;;;;;;;8.70;6.07;;;12.90;99.90;;;;;;6101773;23;20373;-80
2021/10/08 09:15:51;;;;;;;7.85;6.47;;;12.70;99.90;;;;;;6121101;23;20398;-80
2021/10/08 09:18:41;;;;;;;9.07;6.13;;;13.00;99.90;;;;;;6084972;23;20375;-80
2021/10/08 09:21:32;;;;;;;7.20;6.28;;;13.00;99.90;;;;;;6104208;23;20436;-80
2021/10/08 09:24:22;;;;;;;7.03;5.73;;;13.10;99.90;;;;;;6134949;23;20875;-80
2021/10/08 09:27:11;;;;;;;16.33;7.25;;;13.10;99.90;;;;;;6093204;23;20365;-81
2021/10/08 09:29:56;;;;;;;9.80;6.32;;;13.20;99.90;;;;;;6104559;23;20763;-80
2021/10/08 09:32:42;;;;;;;12.95;6.25;;;13.30;99.90;;;;;;6125200;23;20479;-80
2021/10/08 09:35:27;;;;;;;6.13;5.53;;;13.30;99.90;;;;;;6149836;23;20443;-80
2021/10/08 09:38:14;;;;;;;8.95;5.65;;;13.30;99.90;;;;;;6122920;23;20925;-80
2021/10/08 09:41:03;;;;;;;6.68;5.07;;;13.50;99.90;;;;;;6098128;23;20692;-80
2021/10/08 09:43:48;;;;;;;6.13;5.45;;;13.40;99.90;;;;;;6124924;23;20460;-80
2021/10/08 09:46:32;;;;;;;7.40;5.03;;;13.50;99.90;;;;;;6083646;23;20371;-80
2021/10/08 09:49:23;;;;;;;4.10;3.70;;;13.70;99.90;;;;;;6123084;23;20425;-80
2021/10/08 09:52:24;;;;;;;5.43;4.68;;;13.70;99.90;;;;;;6092775;23;20742;-80
2021/10/08 09:55:11;;;;;;;6.53;4.88;;;13.90;99.90;;;;;;6132372;23;20427;-80
2021/10/08 09:57:56;;;;;;;7.05;4.68;;;14.00;99.90;;;;;;6153852;23;20372;-80
2021/10/08 10:01:04;;;;;;;8.80;5.85;;;14.10;99.90;;;;;;6136017;23;20377;-80
2021/10/08 10:03:52;;;;;;;7.28;5.10;;;14.20;99.90;;;;;;6127149;23;20410;-81
2021/10/08 10:06:37;;;;;;;5.72;4.53;;;14.20;99.90;;;;;;6104846;23;20758;-80
2021/10/08 10:09:22;;;;;;;6.03;4.97;;;14.20;99.90;;;;;;6125850;23;20386;-80
2021/10/08 10:12:13;;;;;;;10.82;5.90;;;14.30;99.90;;;;;;6148691;23;20384;-81
2021/10/08 10:15:35;;;;;;;6.30;5.13;;;14.40;99.90;;;;;;6141244;23;20393;-80
2021/10/08 10:19:39;;;;;;;5.50;5.00;;;14.40;99.90;;;;;;6126140;23;20388;-80
2021/10/08 10:22:26;;;;;;;6.93;5.35;;;14.70;99.90;;;;;;6137836;23;20441;-80
2021/10/08 10:25:27;;;;;;;4.88;4.43;;;14.80;99.90;;;;;;6131168;23;20444;-80
2021/10/08 10:29:08;;;;;;;6.80;4.95;;;14.80;99.90;;;;;;6107264;23;20980;-80
2021/10/08 10:32:17;;;;;;;5.20;4.22;;;15.20;99.90;;;;;;6156846;23;20422;-80
2021/10/08 10:35:04;;;;;;;6.78;4.63;;;15.30;99.90;;;;;;6144035;23;20442;-81
2021/10/08 10:38:30;;;;;;;6.13;4.68;;;15.40;99.90;;;;;;6144185;23;20503;-80
2021/10/08 10:41:27;;;;;;;11.57;4.63;;;15.70;99.90;;;;;;6146303;23;20372;-80
2021/10/08 10:44:27;;;;;;;4.88;4.38;;;15.90;99.90;;;;;;6120594;23;20470;-79
2021/10/08 10:47:37;;;;;;;5.50;4.05;;;16.10;99.90;;;;;;6121697;23;20875;-80
2021/10/08 10:51:32;;;;;;;5.13;4.15;;;16.30;99.90;;;;;;6166087;23;20398;-81
2021/10/08 10:55:38;;;;;;;8.95;3.63;;;16.70;99.90;;;;;;6095003;23;20389;-81
2021/10/08 10:59:36;;;;;;;3.72;3.35;;;17.00;99.90;;;;;;6134471;23;20393;-82
2021/10/08 11:03:54;;;;;;;3.83;2.75;;;17.40;99.90;;;;;;6108150;23;20870;-81
2021/10/08 11:07:38;;;;;;;3.47;3.17;;;18.20;99.90;;;;;;6147310;23;20412;-82
2021/10/08 11:11:29;;;;;;;4.28;3.42;;;18.60;99.90;;;;;;6143366;23;20392;-81
2021/10/08 11:15:44;;;;;;;3.47;3.00;;;18.60;99.90;;;;;;6080876;23;20416;-80
2021/10/08 11:19:44;;;;;;;2.72;2.53;;;18.60;99.90;;;;;;6157602;23;20409;-81
2021/10/08 11:40:03;;;;;;;6.47;3.17;;;20.20;99.90;;;;;;6090083;23;20427;-78
2021/10/08 11:43:35;;;;;;;4.38;2.63;;;20.40;94.50;;;;;;6121871;23;20363;-81
2021/10/08 11:46:39;;;;;;;4.28;3.00;;;20.60;95.50;;;;;;6105824;23;20379;-80
2021/10/08 11:53:25;;;;;;;6.10;3.38;;;20.70;94.60;;;;;;6066810;23;20368;-80
2021/10/08 11:56:38;;;;;;;3.58;3.15;;;20.70;95.80;;;;;;6065637;23;20379;-79
2021/10/08 12:00:06;;;;;;;6.38;3.53;;;21.10;94.90;;;;;;6014897;23;20382;-79
2021/10/08 12:03:40;;;;;;;6.43;2.97;;;21.40;93.80;;;;;;6097253;23;20399;-79
2021/10/08 12:07:05;;;;;;;2.70;2.50;;;21.50;93.40;;;;;;6087067;23;20403;-79
2021/10/08 12:10:38;;;;;;;3.40;2.50;;;21.20;89.90;;;;;;6031924;23;20395;-80
2021/10/08 12:14:04;;;;;;;5.45;2.92;;;21.40;91.40;;;;;;6073280;23;20380;-81
2021/10/08 12:24:51;;;;;;;3.30;2.87;;;20.30;92.00;;;;;;6226110;23;20380;-79
2021/10/08 12:27:38;;;;;;;3.60;2.50;;;19.90;91.30;;;;;;6188808;23;20733;-79
2021/10/08 12:30:26;;;;;;;2.97;2.50;;;19.50;90.90;;;;;;6134738;23;20384;-79
2021/10/08 12:33:22;;;;;;;3.13;2.50;;;19.30;90.90;;;;;;6143247;23;20451;-77
2021/10/08 12:36:19;;;;;;;6.05;2.50;;;19.10;91.30;;;;;;6203000;23;20368;-80
2021/10/08 12:39:23;;;;;;;3.17;2.72;;;19.10;92.30;;;;;;6178768;23;20449;-79
2021/10/08 12:42:43;;;;;;;3.38;2.95;;;18.90;92.90;;;;;;6149106;23;20370;-79
2021/10/08 12:45:45;;;;;;;4.72;2.80;;;18.50;92.40;;;;;;6194577;23;20369;-79
2021/10/08 12:49:01;;;;;;;3.53;2.85;;;18.40;93.20;;;;;;6209913;23;20419;-79
2021/10/08 12:52:03;;;;;;;2.85;2.25;;;18.30;92.60;;;;;;6205078;23;20384;-80
2021/10/08 12:55:25;;;;;;;2.58;2.38;;;18.10;91.60;;;;;;6222683;23;21004;-79
2021/10/08 12:59:50;;;;;;;2.70;2.30;;;17.90;92.60;;;;;;6244333;22;20370;-79
2021/10/08 13:12:19;;;;;;;2.47;2.22;;;17.20;91.40;;;;;;6047586;23;20389;-79
2021/10/08 13:15:34;;;;;;;2.90;2.47;;;17.00;92.30;;;;;;6097018;23;20374;-79
2021/10/08 13:19:01;;;;;;;7.90;2.80;;;16.90;92.70;;;;;;6089707;23;20382;-79
2021/10/08 13:22:02;;;;;;;2.95;2.60;;;16.70;92.60;;;;;;6151569;23;20434;-80
2021/10/08 13:25:01;;;;;;;4.85;2.28;;;16.70;92.60;;;;;;6137894;23;20448;-80
2021/10/08 13:27:52;;;;;;;3.92;2.40;;;16.50;91.90;;;;;;6190539;23;20386;-79
2021/10/08 13:31:00;;;;;;;2.67;2.20;;;16.40;92.60;;;;;;6140629;22;20372;-79
2021/10/08 13:33:55;;;;;;;2.45;2.20;;;16.40;92.40;;;;;;6189374;22;20418;-79
2021/10/08 13:37:39;;;;;;;5.93;2.45;;;16.40;91.60;;;;;;6127105;23;20407;-79
2021/10/08 13:41:23;;;;;;;2.73;2.47;;;16.20;92.40;;;;;;6215059;23;20373;-79
2021/10/08 13:44:37;;;;;;;3.10;2.30;;;16.10;92.40;;;;;;6212674;22;20369;-79
2021/10/08 13:48:13;;;;;;;2.53;2.30;;;16.10;93.20;;;;;;6173942;23;20450;-79
2021/10/08 13:51:12;;;;;;;3.55;2.55;;;16.10;93.30;;;;;;6177931;22;20406;-79
2021/10/08 13:54:09;;;;;;;2.63;2.42;;;16.10;92.50;;;;;;6141125;23;20366;-79
2021/10/08 13:57:02;;;;;;;2.60;2.40;;;16.10;93.40;;;;;;6168155;23;20400;-79
2021/10/08 14:00:01;;;;;;;2.80;2.50;;;16.00;94.20;;;;;;6200533;23;20419;-79
2021/10/08 14:03:41;;;;;;;5.40;2.55;;;15.90;92.90;;;;;;6155149;23;20432;-79
2021/10/08 14:10:20;;;;;;;2.70;2.27;;;15.70;92.90;;;;;;6191617;23;20525;-79
2021/10/08 14:13:40;;;;;;;2.80;2.60;;;15.60;91.60;;;;;;6197182;23;20412;-79
2021/10/08 14:16:49;;;;;;;4.22;2.58;;;15.50;91.40;;;;;;6207908;23;20386;-79
2021/10/08 14:20:25;;;;;;;2.80;2.30;;;15.40;91.70;;;;;;6129574;23;20402;-79
2021/10/08 14:23:17;;;;;;;6.30;2.60;;;15.30;90.90;;;;;;6188587;23;20419;-79
2021/10/08 14:26:22;;;;;;;2.42;1.90;;;15.30;92.20;;;;;;6215071;23;20482;-79
2021/10/08 14:29:16;;;;;;;4.03;2.47;;;15.30;92.30;;;;;;6188519;23;20759;-79
2021/10/08 14:32:18;;;;;;;2.88;2.50;;;15.30;92.30;;;;;;6161828;23;20402;-79
2021/10/08 14:35:24;;;;;;;2.57;2.10;;;15.20;92.30;;;;;;6186495;22;20488;-79
2021/10/08 14:41:41;;;;;;;4.38;2.55;;;15.10;93.10;;;;;;6214954;23;20413;-78
2021/10/08 14:45:05;;;;;;;3.63;2.67;;;15.00;92.10;;;;;;6186686;23;20455;-78
2021/10/08 14:48:46;;;;;;;2.53;2.33;;;14.90;92.20;;;;;;6195501;23;20420;-79
2021/10/08 14:52:04;;;;;;;3.08;2.67;;;14.80;92.90;;;;;;6226204;23;20374;-79
2021/10/08 14:55:10;;;;;;;4.43;2.95;;;14.70;93.40;;;;;;6183835;23;20371;-79
2021/10/08 14:58:11;;;;;;;2.58;2.38;;;14.70;93.50;;;;;;6210450;22;20406;-79
2021/10/08 15:00:57;;;;;;;3.25;2.90;;;14.60;94.20;;;;;;6172170;23;20362;-79
2021/10/08 15:03:43;;;;;;;4.28;2.60;;;14.60;93.70;;;;;;6185983;23;20358;-79
2021/10/08 15:06:31;;;;;;;13.98;2.97;;;14.50;93.90;;;;;;6147417;23;20374;-79
2021/10/08 15:09:19;;;;;;;3.75;2.70;;;14.50;93.50;;;;;;6140644;23;20382;-79
2021/10/08 15:12:21;;;;;;;3.53;3.10;;;14.50;94.10;;;;;;6176570;23;20376;-79
2021/10/08 15:15:36;;;;;;;2.67;2.47;;;14.40;94.30;;;;;;6200022;23;20405;-79
2021/10/08 15:18:36;;;;;;;6.03;2.60;;;14.30;94.90;;;;;;6206961;23;20373;-79
2021/10/08 15:21:25;;;;;;;3.63;2.63;;;14.30;95.40;;;;;;6182672;23;20376;-79
2021/10/08 15:24:11;;;;;;;3.63;2.95;;;14.30;95.10;;;;;;6176846;23;20369;-79
2021/10/08 15:27:06;;;;;;;3.90;2.50;;;14.10;94.60;;;;;;6207824;23;20499;-79
2021/10/08 15:29:59;;;;;;;7.50;2.80;;;14.10;95.20;;;;;;6210219;23;20385;-79
2021/10/08 15:32:48;;;;;;;3.40;2.23;;;14.10;95.40;;;;;;6197603;22;20423;-79
2021/10/08 15:53:03;;;;;;;2.25;2.13;;;13.90;97.40;;;;;;6225123;23;20499;-85
2021/10/08 15:55:47;;;;;;;5.53;2.80;;;13.80;97.60;;;;;;6174398;23;20501;-88
2021/10/08 15:58:32;;;;;;;3.15;2.53;;;13.70;97.60;;;;;;6216690;23;20386;-84
2021/10/08 16:01:16;;;;;;;3.50;2.70;;;13.60;98.00;;;;;;6174211;23;20375;-81
2021/10/08 16:04:00;;;;;;;2.83;2.63;;;13.50;98.00;;;;;;6173304;23;20387;-86
2021/10/08 16:06:45;;;;;;;4.60;2.65;;;13.30;98.40;;;;;;6193070;23;20514;-81
2021/10/08 16:09:29;;;;;;;2.45;2.22;;;13.20;98.70;;;;;;6215713;23;20373;-85
2021/10/08 16:12:14;;;;;;;2.38;2.10;;;13.10;98.90;;;;;;6172569;23;20410;-86
2021/10/08 16:14:59;;;;;;;2.28;2.00;;;13.00;99.00;;;;;;6150893;23;20740;-83
2021/10/08 16:17:44;;;;;;;2.58;2.35;;;13.00;99.50;;;;;;6173212;23;20367;-83
2021/10/08 16:20:31;;;;;;;2.80;2.30;;;12.90;99.70;;;;;;6156320;23;20374;-86
2021/10/08 16:23:15;;;;;;;3.90;2.10;;;12.90;99.90;;;;;;6181804;23;20366;-87
2021/10/08 16:25:59;;;;;;;3.43;2.30;;;12.80;99.90;;;;;;6156374;23;20418;-85
2021/10/08 16:28:44;;;;;;;2.67;2.47;;;12.80;99.90;;;;;;6161956;23;20465;-84
2021/10/08 16:31:29;;;;;;;2.53;2.33;;;12.70;99.90;;;;;;6159209;23;20497;-80
2021/10/08 16:34:13;;;;;;;2.92;2.55;;;12.60;99.90;;;;;;6157595;23;20370;-82
2021/10/08 16:37:02;;;;;;;3.33;2.30;;;12.50;99.90;;;;;;6203378;23;20457;-86
2021/10/08 16:39:47;;;;;;;2.13;2.00;;;12.40;99.90;;;;;;6158212;23;20705;-82
2021/10/08 16:42:31;;;;;;;2.35;2.15;;;12.30;99.90;;;;;;6208010;22;21202;-83
2021/10/08 16:45:31;;;;;;;2.50;2.05;;;12.20;99.90;;;;;;6153994;23;20380;-85
2021/10/08 16:48:16;;;;;;;2.30;2.10;;;12.10;99.90;;;;;;6169860;23;20394;-89